»·PEaware :: APA1000 KDTW-KEQY

APA1000 :: KDTW-KEQY

FLIGHT INFORMATION

Flight Status: Arrived
Operator: Unknown
More flights by this operator :: More flights under this callsign
Pilot: Stacy K. (11621)
Aircraft: DEHAVILLAND DASH 8 200
(DH8B)
More flights by this aircraft type
Origin: KDTW Detroit Metro Wayne Co
United States
Destination: KEQY Monroe
United States
More flights between these airports :: More routes between these airports
Route: CLVIN1 STAZE HMV LIINN3
File this flight plan on PilotEdge
Remarks: RMK / SIMBRIEF
Altitude:
(Current/Filed)
21,000ft
Speed:
(Current/Filed)
261kts
Departed: 21-Jul-19 08:15 AM
Arrived: 21-Jul-19 10:13 AM
Distance/Time
Traveled:
450nm/1:58
Distance/Time
To Go:
Arrived

Flight Plot

Page will automatically refresh every two minutes.

Flight plan parsing failed; only flown route is shown


Map Options




Map Legend


Flown Route
Filed Route
Departure Airport
Arrival Airport
Navaid (VOR, NDB)
Fix

Horizontal Profiles

Position Reports

Time Latitude Longitude Heading Altitude Ground
Speed
21-Jul-19 07:53 42.211542 -83.333850 231 651ft 0kts
21-Jul-19 07:54 42.211542 -83.333850 231 651ft 0kts
21-Jul-19 07:55 42.211542 -83.333850 231 651ft 0kts
21-Jul-19 07:56 42.211542 -83.333850 231 651ft 0kts
21-Jul-19 07:57 42.211542 -83.333850 231 651ft 0kts
21-Jul-19 07:58 42.211542 -83.333850 231 651ft 0kts
21-Jul-19 07:59 42.211542 -83.333850 231 651ft 0kts
21-Jul-19 08:00 42.211542 -83.333850 231 651ft 0kts
21-Jul-19 08:01 42.211542 -83.333850 231 651ft 0kts
21-Jul-19 08:02 42.211542 -83.333850 231 651ft 0kts
21-Jul-19 08:03 42.211542 -83.333850 231 651ft 0kts
21-Jul-19 08:04 42.211542 -83.333850 231 651ft 0kts
21-Jul-19 08:05 42.211542 -83.333850 231 651ft 0kts
21-Jul-19 08:06 42.211542 -83.333850 231 651ft 0kts
21-Jul-19 08:07 42.211542 -83.333850 231 651ft 0kts
21-Jul-19 08:08 42.211539 -83.333854 233 651ft 0kts
21-Jul-19 08:09 42.211692 -83.333723 45 651ft 9kts
21-Jul-19 08:10 42.213999 -83.335321 329 651ft 15kts
21-Jul-19 08:11 42.215073 -83.333119 70 651ft 16kts
21-Jul-19 08:12 42.216875 -83.331446 4 651ft 0kts
21-Jul-19 08:13 42.217489 -83.332496 269 651ft 19kts
21-Jul-19 08:14 42.216739 -83.383989 269 1563ft 184kts
21-Jul-19 08:15 42.189330 -83.437584 177 3385ft 211kts
21-Jul-19 08:16 42.131051 -83.421418 176 5223ft 216kts
21-Jul-19 08:17 42.070542 -83.418829 182 7034ft 219kts
21-Jul-19 08:18 42.008626 -83.417723 183 8834ft 224kts
21-Jul-19 08:19 41.946333 -83.416506 185 10618ft 223kts
21-Jul-19 08:20 41.883261 -83.415318 186 12219ft 230kts
21-Jul-19 08:21 41.817814 -83.414091 185 13830ft 237kts
21-Jul-19 08:22 41.751923 -83.412796 185 15425ft 236kts
21-Jul-19 08:23 41.687345 -83.421967 204 16880ft 233kts
21-Jul-19 08:24 41.625416 -83.449972 203 18283ft 235kts
21-Jul-19 08:25 41.562438 -83.478421 203 19685ft 239kts
21-Jul-19 08:27 41.499609 -83.506765 203 21077ft 237kts
21-Jul-19 08:28 41.436223 -83.535380 202 22025ft 253kts
21-Jul-19 08:29 41.366702 -83.566648 202 22028ft 275kts
21-Jul-19 08:30 41.293400 -83.599473 202 22024ft 279kts
21-Jul-19 08:31 41.219606 -83.632481 202 22022ft 280kts
21-Jul-19 08:32 41.145546 -83.665533 202 22020ft 280kts
21-Jul-19 08:33 41.071696 -83.698414 202 22020ft 280kts
21-Jul-19 08:34 40.997731 -83.731272 201 22020ft 280kts
21-Jul-19 08:35 40.923904 -83.763990 201 22026ft 279kts
21-Jul-19 08:36 40.851236 -83.796118 201 22031ft 279kts
21-Jul-19 08:37 40.777747 -83.828564 201 22036ft 279kts
21-Jul-19 08:38 40.703879 -83.861101 201 22038ft 279kts
21-Jul-19 08:39 40.630199 -83.893482 201 22040ft 279kts
21-Jul-19 08:40 40.556870 -83.925613 201 22042ft 275kts
21-Jul-19 08:41 40.484204 -83.957397 201 22047ft 274kts
21-Jul-19 08:42 40.412116 -83.988859 201 22054ft 273kts
21-Jul-19 08:43 40.339635 -84.020427 200 22056ft 274kts
21-Jul-19 08:44 40.265963 -84.044561 185 22057ft 277kts
21-Jul-19 08:45 40.188979 -84.050580 186 22055ft 277kts
21-Jul-19 08:45 40.125017 -84.055606 186 22073ft 276kts
21-Jul-19 08:47 40.035528 -84.062624 186 22054ft 276kts
21-Jul-19 08:48 39.958491 -84.068612 186 22059ft 277kts
21-Jul-19 08:48 39.894340 -84.073630 186 22053ft 277kts
21-Jul-19 08:49 39.817245 -84.079629 186 22045ft 279kts
21-Jul-19 08:51 39.726355 -84.086614 186 22061ft 279kts
21-Jul-19 08:51 39.661968 -84.091691 185 22070ft 277kts
21-Jul-19 08:52 39.584952 -84.097618 185 22058ft 277kts
21-Jul-19 08:53 39.507683 -84.103490 186 22059ft 277kts
21-Jul-19 08:54 39.430674 -84.109401 186 22060ft 277kts
21-Jul-19 08:55 39.353645 -84.115303 185 22065ft 277kts
21-Jul-19 08:56 39.276583 -84.121193 185 22066ft 278kts
21-Jul-19 08:57 39.199364 -84.127081 185 22066ft 278kts
21-Jul-19 08:58 39.122469 -84.122548 159 22066ft 283kts
21-Jul-19 08:59 39.054520 -84.070408 151 22072ft 285kts
21-Jul-19 09:00 38.986200 -84.017860 151 22069ft 285kts
21-Jul-19 09:01 38.918135 -83.965423 151 22081ft 285kts
21-Jul-19 09:02 38.850048 -83.913056 151 22095ft 285kts
21-Jul-19 09:03 38.781711 -83.860621 151 22107ft 285kts
21-Jul-19 09:04 38.713618 -83.808489 150 22118ft 285kts
21-Jul-19 09:05 38.645320 -83.756318 150 22126ft 285kts
21-Jul-19 09:06 38.577080 -83.704309 150 22128ft 285kts
21-Jul-19 09:07 38.509040 -83.652564 150 22128ft 285kts
21-Jul-19 09:08 38.441094 -83.600997 150 22409ft 277kts
21-Jul-19 09:09 38.376021 -83.551727 150 23096ft 273kts
21-Jul-19 09:10 38.308740 -83.500934 150 23129ft 285kts
21-Jul-19 09:11 38.240166 -83.449227 150 23127ft 288kts
21-Jul-19 09:12 38.171079 -83.397258 150 23127ft 288kts
21-Jul-19 09:13 38.101838 -83.345295 151 23128ft 288kts
21-Jul-19 09:14 38.032768 -83.293576 151 23133ft 288kts
21-Jul-19 09:15 37.963453 -83.241799 150 23140ft 288kts
21-Jul-19 09:16 37.894527 -83.190408 150 23143ft 288kts
21-Jul-19 09:17 37.825320 -83.138928 150 23146ft 288kts
21-Jul-19 09:18 37.756241 -83.087663 150 23147ft 288kts
21-Jul-19 09:19 37.687000 -83.036383 150 23149ft 288kts
21-Jul-19 09:20 37.617663 -82.985144 150 23151ft 288kts
21-Jul-19 09:21 37.548395 -82.934071 150 23157ft 288kts
21-Jul-19 09:22 37.479164 -82.883135 150 23163ft 288kts
21-Jul-19 09:23 37.409832 -82.832232 150 23173ft 288kts
21-Jul-19 09:24 37.340511 -82.781460 150 23184ft 288kts
21-Jul-19 09:25 37.271449 -82.730970 151 23194ft 286kts
21-Jul-19 09:26 37.202624 -82.680776 151 23209ft 285kts
21-Jul-19 09:27 37.134249 -82.631012 151 23224ft 284kts
21-Jul-19 09:28 37.065688 -82.581218 151 23233ft 284kts
21-Jul-19 09:29 36.997050 -82.531472 151 23238ft 284kts
21-Jul-19 09:30 36.928541 -82.481924 151 23229ft 284kts
21-Jul-19 09:31 36.859981 -82.432443 151 23222ft 284kts
21-Jul-19 09:32 36.791558 -82.383166 151 23208ft 284kts
21-Jul-19 09:33 36.723141 -82.333995 151 23193ft 284kts
21-Jul-19 09:34 36.654849 -82.285015 151 23182ft 283kts
21-Jul-19 09:35 36.586332 -82.235976 151 23173ft 283kts
21-Jul-19 09:36 36.517972 -82.187151 151 23169ft 283kts
21-Jul-19 09:37 36.449923 -82.138837 153 23165ft 282kts
21-Jul-19 09:38 36.374817 -82.112550 168 23161ft 280kts
21-Jul-19 09:39 36.298345 -82.091017 168 23163ft 280kts
21-Jul-19 09:40 36.222218 -82.069906 168 23172ft 280kts
21-Jul-19 09:41 36.145955 -82.048815 168 23182ft 280kts
21-Jul-19 09:42 36.070015 -82.027850 168 23190ft 280kts
21-Jul-19 09:43 35.993717 -82.006830 168 23193ft 281kts
21-Jul-19 09:44 35.917201 -81.985792 168 23191ft 281kts
21-Jul-19 09:45 35.840975 -81.964875 168 23185ft 281kts
21-Jul-19 09:46 35.764696 -81.943985 168 23176ft 281kts
21-Jul-19 09:47 35.688174 -81.923067 168 23141ft 281kts
21-Jul-19 09:48 35.611735 -81.902211 168 23135ft 281kts
21-Jul-19 09:49 35.546789 -81.854259 120 23141ft 284kts
21-Jul-19 09:50 35.512651 -81.766265 117 23127ft 285kts
21-Jul-19 09:51 35.478133 -81.678536 116 23124ft 285kts
21-Jul-19 09:52 35.443817 -81.591021 116 23125ft 285kts
21-Jul-19 09:53 35.409475 -81.503670 116 23121ft 285kts
21-Jul-19 09:54 35.374868 -81.415876 116 23119ft 284kts
21-Jul-19 09:55 35.340450 -81.328855 116 22487ft 277kts
21-Jul-19 09:56 35.307036 -81.244596 116 21062ft 275kts
21-Jul-19 09:57 35.273638 -81.160548 116 19566ft 274kts
21-Jul-19 09:58 35.240270 -81.076783 116 18069ft 273kts
21-Jul-19 09:59 35.206916 -80.993253 116 16567ft 270kts
21-Jul-19 10:00 35.191199 -80.908336 89 15072ft 257kts
21-Jul-19 10:01 35.193289 -80.823030 89 13822ft 245kts
21-Jul-19 10:02 35.195169 -80.740340 90 12618ft 240kts
21-Jul-19 10:03 35.197012 -80.658548 90 11253ft 241kts
21-Jul-19 10:04 35.198806 -80.576118 90 9756ft 242kts
21-Jul-19 10:05 35.200501 -80.493976 90 8197ft 241kts
21-Jul-19 10:06 35.167659 -80.445819 187 6422ft 195kts
21-Jul-19 10:07 35.126375 -80.480163 229 4608ft 186kts
21-Jul-19 10:08 35.094167 -80.521847 228 2705ft 135kts
21-Jul-19 10:09 35.068724 -80.554197 228 1807ft 133kts
21-Jul-19 10:10 35.044046 -80.586561 229 1351ft 109kts
21-Jul-19 10:11 35.025148 -80.611837 229 749ft 89kts
21-Jul-19 10:12 35.019132 -80.621365 320 684ft 9kts
21-Jul-19 10:13 35.019418 -80.622566 318 684ft 0kts
21-Jul-19 10:14 35.019418 -80.622566 318 684ft 0kts
21-Jul-19 10:15 35.019418 -80.622566 318 684ft 0kts
21-Jul-19 10:16 35.019418 -80.622566 318 684ft 0kts
21-Jul-19 10:17 35.019418 -80.622566 318 684ft 0kts
21-Jul-19 10:18 35.019418 -80.622566 318 684ft 0kts
21-Jul-19 10:19 35.019418 -80.622566 318 684ft 0kts
21-Jul-19 10:20 35.019418 -80.622566 318 684ft 0kts
21-Jul-19 10:21 35.019418 -80.622566 318 684ft 0kts
21-Jul-19 10:22 35.019418 -80.622566 318 684ft 0kts
21-Jul-19 10:23 35.019418 -80.622566 318 684ft 0kts
21-Jul-19 10:24 35.019418 -80.622566 318 684ft 0kts
21-Jul-19 10:25 35.019418 -80.622566 318 684ft 0kts
21-Jul-19 10:26 35.019418 -80.622566 318 684ft 0kts
21-Jul-19 10:27 35.019418 -80.622566 318 684ft 0kts

Navigation Log

Ident Type
Flight plan parsing failed, navigation log unavailable